Castalian Springs, Tennessee
Current Conditions -  °F | °C
As of 6:53 AM on Saturday 20 Dec 2014 (Local Time) from KBNA Reporting Station
Few Clouds Few Clouds  
Wind Chill: 25°   Ceiling: Unl
Heat Index: 30°   Visibility: 8mi
Dew Point: 25°   Wind: 5mph
Humidity: 82%   Direction: 340°NNW
Pressure: 30.28"   Gusts: NA
Location:  36.39°N, 86.31°W
Report Text: KBNA 201253Z 34004KT 8SM FEW200 M01/M04 A3028 RMK AO2 SLP257 T10111039
Loading
Personal Weather Stations






























Interactive Weather Map New forecast layout! Learn more

10-Day Weather Forecast

Advertisements
Track Severe Weather on mobile